Epic Capri — 9HA2845 — position and weather

sailwx.info

Track history (hours):
 
Tides and Currents Weather Stations Pressure Air Temp Water Temp Dewpoint Dewpoint Depression Visibility Wind Speed Wind Dir Waves Ship Positions

Epic Capri

Last reported at 2014-Dec-21 23:32 UTC. Time now 2014-Dec-22 16:18 UTC.
Position N 37°53' W 009°29'.

Length 99 m; draft 5.5 m.

Type: Tanker. MMSI: 256325000.

Date/timePositionNaut miles runAvg speedWind from/ knotsBaromVisibWave heightAir tempDewpointWater temp
2014-Dec-21 23:32N 37°53' W 009°29'10 9.9
2014-Dec-21 22:33N 37°53' W 009°17'9 8.8
2014-Dec-21 21:33N 37°53' W 009°06'10 9.7
2014-Dec-21 20:33N 37°55' W 008°53'2 1.6
2014-Dec-21 19:31N 37°57' W 008°53'0 0.0
2014-Dec-21 18:31N 37°57' W 008°53'0 0.0
2014-Dec-21 17:31N 37°57' W 008°53'0 0.0
2014-Dec-21 16:31N 37°57' W 008°53'0 0.0
2014-Dec-21 15:31N 37°57' W 008°53'0 0.0
2014-Dec-21 14:31N 37°57' W 008°53'0 0.0
2014-Dec-21 13:31N 37°57' W 008°53'0 0.0
2014-Dec-21 12:31N 37°57' W 008°53'0 0.0
2014-Dec-21 11:31N 37°57' W 008°53'0 0.0
2014-Dec-21 10:31N 37°57' W 008°53'0 0.0
2014-Dec-21 09:31N 37°57' W 008°53'0 0.0
2014-Dec-21 08:28N 37°57' W 008°53'0 0.0
2014-Dec-21 07:31N 37°57' W 008°53'0 0.0
2014-Dec-21 06:31N 37°57' W 008°53'0 0.0
2014-Dec-21 05:31N 37°57' W 008°53'0 0.0
2014-Dec-21 04:31N 37°57' W 008°53'0 0.0
2014-Dec-21 03:31N 37°57' W 008°53'0 0.0
2014-Dec-21 02:31N 37°57' W 008°53'0 0.0
2014-Dec-21 01:31N 37°57' W 008°53'0 0.0
2014-Dec-21 00:31N 37°57' W 008°53'1 1.5
2014-Dec-20 23:33N 37°56' W 008°53'1 1.3
2014-Dec-20 22:32N 37°54' W 008°52'0 0.0
2014-Dec-20 21:29N 37°54' W 008°52'0 0.0
2014-Dec-20 20:32N 37°54' W 008°52'0 0.0
2014-Dec-20 19:32N 37°54' W 008°52'0 0.0
2014-Dec-20 18:32N 37°54' W 008°52'3 3.1
2014-Dec-20 17:33N 37°53' W 008°55'10 9.7
2014-Dec-20 16:33N 37°47' W 009°05'10 9.7
2014-Dec-20 15:34N 37°40' W 009°14'10 9.5
2014-Dec-20 14:34N 37°35' W 009°24'9 9.2
2014-Dec-20 13:33N 37°29' W 009°33'9 8.8
2014-Dec-20 12:33N 37°23' W 009°41'9 8.9
2014-Dec-20 11:30N 37°17' W 009°51'  
2014-Dec-15 08:33N 37°42' W 009°12'9 9.5
2014-Dec-15 07:33N 37°48' W 009°02'10 9.5
2014-Dec-15 06:33N 37°55' W 008°54'2 2.2
2014-Dec-15 05:31N 37°57' W 008°53'0 0.0
2014-Dec-15 04:31N 37°57' W 008°53'0 0.0
2014-Dec-15 03:31N 37°57' W 008°53'0 0.0
2014-Dec-15 02:31N 37°57' W 008°53'0 0.0
2014-Dec-15 01:31N 37°57' W 008°53'0 0.0
2014-Dec-15 00:31N 37°57' W 008°53'0 0.0
2014-Dec-14 23:31N 37°57' W 008°53'0 0.0
2014-Dec-14 22:31N 37°57' W 008°53'0 0.0
2014-Dec-14 21:31N 37°57' W 008°53'0 0.0
2014-Dec-14 20:31N 37°57' W 008°53'0 0.0
2014-Dec-14 19:31N 37°57' W 008°53'0 0.0
2014-Dec-14 18:31N 37°57' W 008°53'0 0.0
2014-Dec-14 17:31N 37°57' W 008°53'0 0.0
2014-Dec-14 16:31N 37°57' W 008°53'0 0.0
2014-Dec-14 15:31N 37°57' W 008°53'0 0.0
2014-Dec-14 14:31N 37°57' W 008°53'0 0.0
2014-Dec-14 13:31N 37°57' W 008°53'0 0.0
2014-Dec-14 12:31N 37°57' W 008°53'0 0.0
2014-Dec-14 11:31N 37°57' W 008°53'0 0.0
2014-Dec-14 10:31N 37°57' W 008°53'0 0.0
2014-Dec-14 09:31N 37°57' W 008°53'0 0.0
2014-Dec-14 08:31N 37°57' W 008°53'0 0.0
2014-Dec-14 07:31N 37°57' W 008°53'0 0.0
2014-Dec-14 06:31N 37°57' W 008°53'1 1.3
2014-Dec-14 05:33N 37°56' W 008°53'1 0.9
2014-Dec-14 04:31N 37°55' W 008°52'0 0.0
2014-Dec-14 03:31N 37°55' W 008°52'0 0.1
2014-Dec-14 02:31N 37°55' W 008°52'0 0.0
2014-Dec-14 01:31N 37°55' W 008°52'0 0.0
2014-Dec-14 00:31N 37°55' W 008°52'0 0.0
2014-Dec-13 23:33N 37°55' W 008°52'1 1.2
2014-Dec-13 22:32N 37°56' W 008°54'8 8.1
2014-Dec-13 21:33N 38°01' W 009°01'9 8.6
2014-Dec-13 20:33N 38°04' W 009°11'10 9.7
2014-Dec-13 19:33N 38°07' W 009°23'  
Track history (hours):
 
Tides and Currents Weather Stations Pressure Air Temp Water Temp Dewpoint Dewpoint Depression Visibility Wind Speed Wind Dir Waves Ship Positions

Epic Capri

Last reported at 2014-Dec-21 23:32 UTC. Time now 2014-Dec-22 16:18 UTC.
Position N 37°53' W 009°29'.

Length 99 m; draft 5.5 m.

Type: Tanker. MMSI: 256325000.

Date/timePositionNaut miles runAvg speedWind from/ knotsBaromVisibWave heightAir tempDewpointWater temp
2014-Dec-21 23:32N 37°53' W 009°29'10 9.9
2014-Dec-21 22:33N 37°53' W 009°17'9 8.8
2014-Dec-21 21:33N 37°53' W 009°06'10 9.7
2014-Dec-21 20:33N 37°55' W 008°53'2 1.6
2014-Dec-21 19:31N 37°57' W 008°53'0 0.0
2014-Dec-21 18:31N 37°57' W 008°53'0 0.0
2014-Dec-21 17:31N 37°57' W 008°53'0 0.0
2014-Dec-21 16:31N 37°57' W 008°53'0 0.0
2014-Dec-21 15:31N 37°57' W 008°53'0 0.0
2014-Dec-21 14:31N 37°57' W 008°53'0 0.0
2014-Dec-21 13:31N 37°57' W 008°53'0 0.0
2014-Dec-21 12:31N 37°57' W 008°53'0 0.0
2014-Dec-21 11:31N 37°57' W 008°53'0 0.0
2014-Dec-21 10:31N 37°57' W 008°53'0 0.0
2014-Dec-21 09:31N 37°57' W 008°53'0 0.0
2014-Dec-21 08:28N 37°57' W 008°53'0 0.0
2014-Dec-21 07:31N 37°57' W 008°53'0 0.0
2014-Dec-21 06:31N 37°57' W 008°53'0 0.0
2014-Dec-21 05:31N 37°57' W 008°53'0 0.0
2014-Dec-21 04:31N 37°57' W 008°53'0 0.0
2014-Dec-21 03:31N 37°57' W 008°53'0 0.0
2014-Dec-21 02:31N 37°57' W 008°53'0 0.0
2014-Dec-21 01:31N 37°57' W 008°53'0 0.0
2014-Dec-21 00:31N 37°57' W 008°53'1 1.5
2014-Dec-20 23:33N 37°56' W 008°53'1 1.3
2014-Dec-20 22:32N 37°54' W 008°52'0 0.0
2014-Dec-20 21:29N 37°54' W 008°52'0 0.0
2014-Dec-20 20:32N 37°54' W 008°52'0 0.0
2014-Dec-20 19:32N 37°54' W 008°52'0 0.0
2014-Dec-20 18:32N 37°54' W 008°52'3 3.1
2014-Dec-20 17:33N 37°53' W 008°55'10 9.7
2014-Dec-20 16:33N 37°47' W 009°05'10 9.7
2014-Dec-20 15:34N 37°40' W 009°14'10 9.5
2014-Dec-20 14:34N 37°35' W 009°24'9 9.2
2014-Dec-20 13:33N 37°29' W 009°33'9 8.8
2014-Dec-20 12:33N 37°23' W 009°41'9 8.9
2014-Dec-20 11:30N 37°17' W 009°51'  
2014-Dec-15 08:33N 37°42' W 009°12'9 9.5
2014-Dec-15 07:33N 37°48' W 009°02'10 9.5
2014-Dec-15 06:33N 37°55' W 008°54'2 2.2
2014-Dec-15 05:31N 37°57' W 008°53'0 0.0
2014-Dec-15 04:31N 37°57' W 008°53'0 0.0
2014-Dec-15 03:31N 37°57' W 008°53'0 0.0
2014-Dec-15 02:31N 37°57' W 008°53'0 0.0
2014-Dec-15 01:31N 37°57' W 008°53'0 0.0
2014-Dec-15 00:31N 37°57' W 008°53'0 0.0
2014-Dec-14 23:31N 37°57' W 008°53'0 0.0
2014-Dec-14 22:31N 37°57' W 008°53'0 0.0
2014-Dec-14 21:31N 37°57' W 008°53'0 0.0
2014-Dec-14 20:31N 37°57' W 008°53'0 0.0
2014-Dec-14 19:31N 37°57' W 008°53'0 0.0
2014-Dec-14 18:31N 37°57' W 008°53'0 0.0
2014-Dec-14 17:31N 37°57' W 008°53'0 0.0
2014-Dec-14 16:31N 37°57' W 008°53'0 0.0
2014-Dec-14 15:31N 37°57' W 008°53'0 0.0
2014-Dec-14 14:31N 37°57' W 008°53'0 0.0
2014-Dec-14 13:31N 37°57' W 008°53'0 0.0
2014-Dec-14 12:31N 37°57' W 008°53'0 0.0
2014-Dec-14 11:31N 37°57' W 008°53'0 0.0
2014-Dec-14 10:31N 37°57' W 008°53'0 0.0
2014-Dec-14 09:31N 37°57' W 008°53'0 0.0
2014-Dec-14 08:31N 37°57' W 008°53'0 0.0
2014-Dec-14 07:31N 37°57' W 008°53'0 0.0
2014-Dec-14 06:31N 37°57' W 008°53'1 1.3
2014-Dec-14 05:33N 37°56' W 008°53'1 0.9
2014-Dec-14 04:31N 37°55' W 008°52'0 0.0
2014-Dec-14 03:31N 37°55' W 008°52'0 0.1
2014-Dec-14 02:31N 37°55' W 008°52'0 0.0
2014-Dec-14 01:31N 37°55' W 008°52'0 0.0
2014-Dec-14 00:31N 37°55' W 008°52'0 0.0
2014-Dec-13 23:33N 37°55' W 008°52'1 1.2
2014-Dec-13 22:32N 37°56' W 008°54'8 8.1
2014-Dec-13 21:33N 38°01' W 009°01'9 8.6
2014-Dec-13 20:33N 38°04' W 009°11'10 9.7
2014-Dec-13 19:33N 38°07' W 009°23'  

Dump ship's entire track history